Terminal Aerodrome Forecast
Issued by NWS Blacksburg, VA

Home | Current Version | Previous Version | Text Only | Print | Product List | Glossary On
Versions: 1 2 3 4 5 6 7 8 9 10 11 12 13 14 15 16 17 18 19
000
FTUS41 KRNK 280733 AAA
TAFROA
TAF AMD
KROA 280733Z 2808/2906 VRB03KT P6SM -TSRA SCT005 OVC060CB
      TEMPO 2809/2811 4SM -TSRA BR OVC035CB
     FM281400 20004KT P6SM SCT050
     FM281900 20006KT P6SM VCTS BKN050CB
     FM290100 26004KT P6SM BKN100=

USA.gov is the U.S. government's official web portal to all federal, state and local government web resources and services.